Terminal Aerodrome Forecast
Issued by NWS

Home | Current Version | Previous Version | Text Only | Print | Product List | Glossary On
Versions: 1 2 3 4 5 6 7 8 9 10 11 12 13 14 15 16 17
000
FTUS46 KPDT 030520
TAFDLS
TAF
KDLS 030520Z 0306/0406 31008G15KT P6SM SCT150 BKN250
     FM031200 31010G18KT P6SM SCT120 OVC180
     FM031800 32015G25KT P6SM FEW100 SCT120 OVC150
     FM040300 30010G20KT P6SM SCT150 BKN250=

USA.gov is the U.S. government's official web portal to all federal, state and local government web resources and services.